Georgetown, Louisiana
Current Conditions -  °F | °C
As of 10:53 AM on Monday 22 Dec 2014 (Local Time) from KESF Reporting Station
Overcast Overcast  
Wind Chill: 56°   Ceiling: 200
Heat Index: 56°   Visibility: 10mi
Dew Point: 56°   Wind: 5mph
Humidity: 100%   Direction: 150°SSE
Pressure: 29.75"   Gusts: NA
Location:  31.76°N, 92.38°W
Report Text: KESF 221653Z AUTO 15004KT 10SM OVC002 13/13 A2975 RMK AO2 SLP074 T01330133 $
Loading
Personal Weather Stations






























Interactive Weather Map New forecast layout! Learn more

10-Day Weather Forecast

Advertisements
Track Severe Weather on mobile